Charlie Lake, Canada
Current Conditions -  °F | °C
As of 9:00 PM on Tuesday 21 Oct 2014 (Local Time) from CYXJ Reporting Station
Broken Clouds Broken Clouds  
Wind Chill: 48°   Ceiling: 23000
Heat Index: 48°   Visibility: 15mi
Dew Point: 34°   Wind: 3mph
Humidity: 57%   Direction: 200°SSW
Pressure: 29.56"   Gusts: NA
Location:  56.34°N, 121°W
Report Text: CYXJ 220300Z 20003KT 15SM SCT100 BKN230 09/01 A2956 RMK AC4CI2 SLP034 DENSITY ALT 2500FT
Loading
Personal Weather Stations






























Interactive Weather Map
Tropical Storm Tracking
New forecast layout! Learn more

10-Day Weather Forecast

Advertisements
Track Severe Weather on mobile